Time;durP1;ratioP1;P1;durP2;ratioP2;P2;SDS_P1;SDS_P2;PMS_P1;PMS_P2;Temp;Humidity;BMP_temperature;BMP_pressure;BME280_temperature;BME280_humidity;BME280_pressure;Samples;Min_cycle;Max_cycle;Signal;HPM_P1;HPM_P2
2023/07/08 00:01:01;;;;;;;4.95;4.47;;;14.90;99.90;;;;;;10450777;28;20227;-90
2023/07/08 00:06:04;;;;;;;4.53;4.13;;;14.80;99.90;;;;;;10451069;28;20215;-90
2023/07/08 00:11:14;;;;;;;6.93;4.95;;;14.70;99.90;;;;;;10448605;28;20246;-89
2023/07/08 00:16:19;;;;;;;6.80;4.70;;;14.80;99.90;;;;;;10450583;28;20262;-90
2023/07/08 00:21:21;;;;;;;7.22;3.97;;;14.70;99.90;;;;;;10452035;28;20619;-89
2023/07/08 00:26:31;;;;;;;10.43;5.00;;;14.80;99.90;;;;;;10420205;28;20263;-89
2023/07/08 00:31:35;;;;;;;4.05;3.60;;;14.80;99.90;;;;;;10430370;28;20681;-89
2023/07/08 00:36:38;;;;;;;8.55;4.82;;;14.70;99.90;;;;;;10432890;28;20316;-90
2023/07/08 00:41:43;;;;;;;7.40;4.68;;;14.50;99.90;;;;;;10432213;28;20308;-90
2023/07/08 00:47:04;;;;;;;8.60;4.60;;;14.50;99.90;;;;;;10450332;28;20207;-90
2023/07/08 00:52:25;;;;;;;5.05;4.50;;;14.40;99.90;;;;;;10451312;28;20288;-89
2023/07/08 00:57:32;;;;;;;7.00;4.55;;;14.40;99.90;;;;;;10450281;28;20774;-89
2023/07/08 01:02:40;;;;;;;5.68;4.57;;;14.30;99.90;;;;;;10430438;28;20269;-89
2023/07/08 01:07:47;;;;;;;4.05;3.15;;;14.00;99.90;;;;;;10431672;28;20704;-90
2023/07/08 01:12:54;;;;;;;5.97;4.28;;;14.00;99.90;;;;;;10430485;28;20219;-90
2023/07/08 01:17:57;;;;;;;5.32;4.68;;;14.00;99.90;;;;;;10448820;28;20286;-89
2023/07/08 01:22:59;;;;;;;5.18;4.78;;;14.00;99.90;;;;;;10448668;28;20752;-90
2023/07/08 01:28:03;;;;;;;5.07;4.32;;;14.00;99.90;;;;;;10429810;28;20637;-91
2023/07/08 01:33:12;;;;;;;4.53;4.07;;;13.90;99.90;;;;;;10449335;28;20234;-91
2023/07/08 01:38:17;;;;;;;8.23;4.28;;;14.00;99.90;;;;;;10448722;28;20297;-90
2023/07/08 01:43:20;;;;;;;5.55;4.68;;;14.00;99.90;;;;;;10430932;28;20784;-90
2023/07/08 01:48:24;;;;;;;4.68;4.18;;;13.90;99.90;;;;;;10447015;28;20635;-90
2023/07/08 01:53:32;;;;;;;7.57;4.25;;;13.90;99.90;;;;;;10448631;28;20265;-90
2023/07/08 01:58:35;;;;;;;4.07;3.72;;;13.90;99.90;;;;;;10429456;28;20230;-90
2023/07/08 02:03:38;;;;;;;8.00;4.13;;;13.70;99.90;;;;;;10429690;28;20238;-90
2023/07/08 02:08:42;;;;;;;5.80;4.95;;;13.70;99.90;;;;;;10430002;28;20304;-90
2023/07/08 02:13:45;;;;;;;5.88;4.47;;;13.60;99.90;;;;;;10447957;28;20266;-90
2023/07/08 02:18:47;;;;;;;4.72;4.40;;;13.60;99.90;;;;;;10412795;28;20265;-90
2023/07/08 02:23:52;;;;;;;5.20;3.97;;;13.40;99.90;;;;;;10450297;28;20606;-90
2023/07/08 02:28:55;;;;;;;5.60;4.43;;;13.50;99.90;;;;;;10452543;28;20319;-90
2023/07/08 02:33:57;;;;;;;5.13;4.63;;;13.60;99.90;;;;;;10436756;28;20759;-90
2023/07/08 02:39:00;;;;;;;7.70;4.65;;;13.60;99.90;;;;;;10436952;28;20300;-90
2023/07/08 02:44:03;;;;;;;7.00;4.38;;;13.30;99.90;;;;;;10454369;28;20316;-90
2023/07/08 02:49:07;;;;;;;5.85;5.35;;;13.20;99.90;;;;;;10436487;28;20315;-90
2023/07/08 02:54:09;;;;;;;5.35;4.85;;;13.20;99.90;;;;;;10436197;28;20258;-90
2023/07/08 02:59:12;;;;;;;11.45;4.22;;;13.10;99.90;;;;;;10454447;28;20293;-90
2023/07/08 03:04:15;;;;;;;4.57;3.67;;;13.10;99.90;;;;;;10436313;28;20770;-90
2023/07/08 03:09:18;;;;;;;5.95;3.63;;;13.20;99.90;;;;;;10454857;28;20296;-90
2023/07/08 03:14:21;;;;;;;5.03;3.75;;;13.20;99.90;;;;;;10453695;28;20655;-90
2023/07/08 03:19:25;;;;;;;8.63;5.40;;;13.20;99.90;;;;;;10435766;28;20211;-90
2023/07/08 03:24:29;;;;;;;6.65;5.65;;;13.10;99.90;;;;;;10453160;28;20609;-90
2023/07/08 03:29:36;;;;;;;5.53;5.03;;;13.10;99.90;;;;;;10434940;28;20300;-90
2023/07/08 03:34:39;;;;;;;10.05;6.00;;;13.20;99.90;;;;;;10417633;28;20313;-90
2023/07/08 03:39:42;;;;;;;5.57;5.05;;;13.10;99.90;;;;;;10434081;28;20206;-90
2023/07/08 03:44:44;;;;;;;6.68;5.35;;;13.30;99.90;;;;;;10416630;28;20710;-89
2023/07/08 03:49:47;;;;;;;6.82;5.45;;;13.40;99.90;;;;;;10434864;28;20246;-90
2023/07/08 03:54:50;;;;;;;5.75;4.82;;;13.60;99.90;;;;;;10451763;28;20262;-90
2023/07/08 03:59:53;;;;;;;5.05;3.88;;;13.70;99.90;;;;;;10434570;28;20293;-90
2023/07/08 04:04:55;;;;;;;7.38;6.60;;;13.90;99.90;;;;;;10427061;28;20302;-90
2023/07/08 04:09:58;;;;;;;11.95;6.68;;;14.10;99.90;;;;;;10393193;28;20829;-89
2023/07/08 04:15:03;;;;;;;3.88;3.58;;;14.10;99.90;;;;;;10436338;28;20262;-90
2023/07/08 04:20:06;;;;;;;8.82;6.75;;;14.60;99.90;;;;;;10452385;28;20288;-91
2023/07/08 04:25:10;;;;;;;8.88;6.05;;;15.00;99.90;;;;;;10449320;28;20247;-91
2023/07/08 04:30:23;;;;;;;12.00;5.78;;;15.10;99.90;;;;;;10450700;28;20262;-90
2023/07/08 04:35:25;;;;;;;4.40;3.92;;;15.30;99.90;;;;;;10449413;28;20266;-90
2023/07/08 04:40:28;;;;;;;4.10;3.80;;;15.50;99.90;;;;;;10433201;28;20235;-90
2023/07/08 04:45:31;;;;;;;6.45;5.13;;;15.80;99.90;;;;;;10448439;28;20361;-90
2023/07/08 04:50:34;;;;;;;3.03;2.83;;;16.00;99.90;;;;;;10431829;28;20629;-90
2023/07/08 04:55:41;;;;;;;2.28;2.00;;;16.30;99.90;;;;;;10433794;28;21048;-90
2023/07/08 05:00:43;;;;;;;2.55;2.35;;;16.70;99.90;;;;;;10449904;28;20761;-90
2023/07/08 05:05:46;;;;;;;4.35;3.95;;;16.90;99.90;;;;;;10448744;28;20280;-91
2023/07/08 05:10:48;;;;;;;6.05;4.95;;;17.10;99.90;;;;;;10449945;28;20238;-90
2023/07/08 05:15:52;;;;;;;5.95;5.43;;;17.20;99.90;;;;;;10449529;28;20237;-90
2023/07/08 05:20:56;;;;;;;4.38;3.53;;;17.40;99.90;;;;;;10448158;28;20803;-90
2023/07/08 05:26:00;;;;;;;2.85;2.15;;;17.50;99.90;;;;;;10394701;28;20258;-90
2023/07/08 05:31:03;;;;;;;2.00;1.90;;;17.80;99.90;;;;;;10448495;28;20231;-90
2023/07/08 05:36:07;;;;;;;1.90;1.40;;;18.00;99.90;;;;;;10449841;28;20348;-90
2023/07/08 05:41:09;;;;;;;2.33;1.98;;;18.20;99.90;;;;;;10448409;28;20639;-90
2023/07/08 05:46:15;;;;;;;3.45;2.53;;;18.40;99.90;;;;;;10449086;28;20429;-89
2023/07/08 05:51:17;;;;;;;4.72;2.60;;;18.60;99.40;;;;;;10393627;28;20243;-90
2023/07/08 05:56:20;;;;;;;2.60;2.38;;;18.80;99.10;;;;;;10396544;28;20708;-90
2023/07/08 06:01:22;;;;;;;2.72;1.63;;;19.00;97.40;;;;;;10449779;28;20230;-89
2023/07/08 06:06:28;;;;;;;2.28;1.45;;;19.10;96.90;;;;;;10456746;28;20238;-89
2023/07/08 06:11:31;;;;;;;2.38;1.80;;;19.30;96.00;;;;;;10455836;28;20246;-88
2023/07/08 06:16:35;;;;;;;1.88;1.75;;;19.50;94.00;;;;;;10455127;28;20262;-89
2023/07/08 06:21:43;;;;;;;2.05;1.77;;;19.70;93.80;;;;;;10455617;28;20234;-90
2023/07/08 06:26:46;;;;;;;1.35;1.25;;;19.90;92.80;;;;;;10454536;28;20399;-89
2023/07/08 06:32:01;;;;;;;2.35;2.00;;;20.10;92.60;;;;;;10455297;28;20635;-89
2023/07/08 06:37:05;;;;;;;2.97;1.42;;;20.30;91.90;;;;;;10455310;28;20274;-89
2023/07/08 06:42:07;;;;;;;1.45;1.35;;;20.50;91.00;;;;;;10437134;28;20246;-89
2023/07/08 06:47:16;;;;;;;8.35;3.85;;;20.70;90.30;;;;;;10421061;28;20301;-88
2023/07/08 06:52:18;;;;;;;1.67;1.50;;;20.90;87.80;;;;;;10455049;28;20242;-90
2023/07/08 06:57:21;;;;;;;5.65;3.85;;;21.10;87.30;;;;;;10451498;28;20277;-90
2023/07/08 07:02:24;;;;;;;1.77;1.10;;;21.30;80.70;;;;;;10439125;28;20823;-90
2023/07/08 07:07:26;;;;;;;3.00;2.65;;;21.60;81.80;;;;;;10437312;28;20305;-90
2023/07/08 07:12:29;;;;;;;4.03;3.42;;;21.80;75.70;;;;;;10452169;28;20640;-93
2023/07/08 07:17:31;;;;;;;2.00;1.77;;;22.10;75.90;;;;;;10454349;28;20277;-92
2023/07/08 07:22:35;;;;;;;4.05;1.88;;;22.30;75.10;;;;;;10453857;28;20304;-92
2023/07/08 07:27:38;;;;;;;3.03;1.10;;;22.50;70.80;;;;;;10438229;28;20239;-92
2023/07/08 07:32:44;;;;;;;5.63;2.17;;;22.80;69.70;;;;;;10453856;28;20243;-93
2023/07/08 07:37:47;;;;;;;3.67;1.80;;;23.10;61.70;;;;;;10453938;28;20266;-92
2023/07/08 07:42:50;;;;;;;7.88;2.95;;;23.30;62.20;;;;;;10448962;28;20334;-92
2023/07/08 07:47:52;;;;;;;1.52;1.33;;;23.50;57.80;;;;;;10450776;28;20682;-93
2023/07/08 07:52:55;;;;;;;3.17;1.75;;;23.70;55.80;;;;;;10453343;28;20240;-93
2023/07/08 07:57:57;;;;;;;4.18;1.38;;;23.90;54.00;;;;;;10434107;28;20262;-94
2023/07/08 08:03:03;;;;;;;2.95;1.17;;;24.10;55.30;;;;;;10434474;28;20265;-92
2023/07/08 08:08:05;;;;;;;2.13;1.55;;;24.20;51.60;;;;;;10451880;28;20238;-93
2023/07/08 08:13:08;;;;;;;1.35;1.13;;;24.30;48.90;;;;;;10434407;28;20241;-92
2023/07/08 08:18:10;;;;;;;1.60;1.50;;;24.40;46.00;;;;;;10432704;28;20284;-93
2023/07/08 08:23:13;;;;;;;3.42;3.13;;;24.60;43.10;;;;;;10449862;28;20239;-92
2023/07/08 08:28:15;;;;;;;1.67;1.35;;;24.70;38.30;;;;;;10433290;28;20262;-92
2023/07/08 08:33:19;;;;;;;5.57;2.17;;;24.90;44.20;;;;;;10433131;28;20300;-93
2023/07/08 08:38:22;;;;;;;1.65;1.17;;;25.00;35.30;;;;;;10447847;28;20284;-92
2023/07/08 08:43:37;;;;;;;1.40;1.30;;;25.10;37.90;;;;;;10449061;28;20291;-94
2023/07/08 08:49:01;;;;;;;2.88;2.05;;;25.10;41.40;;;;;;10449825;28;20239;-92
2023/07/08 08:54:04;;;;;;;1.92;1.40;;;25.10;36.40;;;;;;10450154;28;20242;-92
2023/07/08 08:59:11;;;;;;;3.95;2.33;;;25.20;35.20;;;;;;10450509;28;20312;-91
2023/07/08 09:04:35;;;;;;;2.47;2.20;;;25.30;33.40;;;;;;10431921;28;20571;-93
2023/07/08 09:09:46;;;;;;;6.50;2.40;;;25.50;30.60;;;;;;10449722;28;20280;-92
2023/07/08 09:14:50;;;;;;;4.75;2.90;;;25.50;31.10;;;;;;10432171;28;20701;-93
2023/07/08 09:20:07;;;;;;;2.30;2.10;;;25.60;28.20;;;;;;10449549;28;20262;-91
2023/07/08 09:25:15;;;;;;;6.10;3.08;;;25.70;26.90;;;;;;10413822;28;20226;-96
2023/07/08 09:30:21;;;;;;;3.10;2.80;;;25.90;32.40;;;;;;10449049;28;20208;-96
2023/07/08 09:35:37;;;;;;;3.78;2.67;;;25.60;22.20;;;;;;10412955;28;20227;-96
2023/07/08 09:40:43;;;;;;;2.75;2.55;;;25.70;21.90;;;;;;10412724;28;20256;-96
2023/07/08 09:45:47;;;;;;;5.07;2.85;;;25.80;18.30;;;;;;10455370;28;20268;-96
2023/07/08 09:50:53;;;;;;;3.30;3.00;;;25.70;18.50;;;;;;10461316;28;20214;-96
2023/07/08 09:56:02;;;;;;;4.07;2.67;;;25.80;18.70;;;;;;10447400;28;20257;-96
2023/07/08 10:01:13;;;;;;;4.25;3.05;;;25.80;17.30;;;;;;10435248;28;20208;-96
2023/07/08 10:06:27;;;;;;;2.92;2.65;;;26.00;15.20;;;;;;10435073;28;20341;-96
2023/07/08 10:11:36;;;;;;;3.63;2.90;;;26.20;14.90;;;;;;10446051;28;20207;-96
2023/07/08 10:16:38;;;;;;;3.67;3.00;;;26.40;14.30;;;;;;10441875;28;20239;-96
2023/07/08 10:22:31;;;;;;;4.70;2.78;;;26.30;14.30;;;;;;10477064;28;20248;-96
2023/07/08 10:27:40;;;;;;;4.13;2.42;;;26.50;13.80;;;;;;10414860;28;20226;-96
2023/07/08 10:33:08;;;;;;;3.28;2.92;;;26.60;14.20;;;;;;10467580;28;20207;-96
2023/07/08 10:38:52;;;;;;;6.05;2.92;;;26.40;12.80;;;;;;10447388;28;20235;-95
2023/07/08 10:44:24;;;;;;;4.38;2.78;;;26.50;13.60;;;;;;10449832;28;20210;-96
2023/07/08 10:49:49;;;;;;;3.47;2.92;;;26.70;13.00;;;;;;10418541;28;20245;-95
2023/07/08 10:55:27;;;;;;;5.03;3.40;;;26.90;13.30;;;;;;10436870;28;20238;-94
2023/07/08 11:00:56;;;;;;;10.18;3.63;;;26.70;11.90;;;;;;10454809;28;20211;-95
2023/07/08 11:06:15;;;;;;;4.82;3.30;;;26.70;11.00;;;;;;10421102;28;20242;-96
2023/07/08 11:11:24;;;;;;;5.70;2.92;;;26.70;10.80;;;;;;10439609;28;20211;-94
2023/07/08 11:16:42;;;;;;;3.20;2.65;;;26.30;11.60;;;;;;10428670;28;20254;-94
2023/07/08 11:21:50;;;;;;;3.55;3.13;;;26.10;12.00;;;;;;10439692;28;20234;-96
2023/07/08 11:27:18;;;;;;;4.38;2.90;;;26.30;11.70;;;;;;10450260;28;20235;-96
2023/07/08 11:32:24;;;;;;;3.17;2.88;;;26.20;11.60;;;;;;10489941;28;20214;-96
2023/07/08 11:37:29;;;;;;;2.47;2.28;;;26.50;11.60;;;;;;10460397;28;20222;-93
2023/07/08 11:42:42;;;;;;;6.97;3.00;;;26.70;9.90;;;;;;10435606;28;20231;-95
2023/07/08 11:47:51;;;;;;;4.10;2.67;;;26.80;9.80;;;;;;10454055;28;20207;-93
2023/07/08 11:53:08;;;;;;;3.03;2.72;;;27.00;9.90;;;;;;10453174;28;20618;-94
2023/07/08 11:58:24;;;;;;;5.10;2.70;;;27.20;8.10;;;;;;10452736;28;20311;-93
2023/07/08 12:03:49;;;;;;;5.22;3.08;;;27.30;7.30;;;;;;10452338;28;20646;-93
2023/07/08 12:08:53;;;;;;;3.85;3.03;;;27.20;8.30;;;;;;10435914;28;20211;-93
2023/07/08 12:14:08;;;;;;;2.75;2.30;;;27.20;10.00;;;;;;10452226;28;20296;-93
2023/07/08 12:19:17;;;;;;;6.95;3.50;;;27.10;8.60;;;;;;10451116;28;20263;-92
2023/07/08 12:24:25;;;;;;;3.45;2.90;;;27.20;9.00;;;;;;10450514;28;20253;-92
2023/07/08 12:29:28;;;;;;;2.63;2.42;;;27.20;8.20;;;;;;10416523;28;20597;-92
2023/07/08 12:34:32;;;;;;;5.53;2.83;;;27.20;9.60;;;;;;10442847;28;20269;-92
2023/07/08 12:39:35;;;;;;;2.40;2.17;;;27.10;10.50;;;;;;10449203;28;20262;-91
2023/07/08 12:44:42;;;;;;;2.97;2.72;;;26.80;9.60;;;;;;10431208;28;20239;-91
2023/07/08 12:49:44;;;;;;;2.85;2.45;;;26.90;11.00;;;;;;10450404;28;20242;-91
2023/07/08 12:54:47;;;;;;;3.33;3.03;;;26.80;11.20;;;;;;10408234;28;20239;-92
2023/07/08 12:59:50;;;;;;;3.83;2.92;;;26.90;10.60;;;;;;10069680;28;10000100;-91
2023/07/08 13:04:59;;;;;;;2.92;2.70;;;27.10;7.90;;;;;;10079445;28;9999789;-92
2023/07/08 13:10:04;;;;;;;4.47;2.55;;;27.30;7.10;;;;;;10428342;28;20230;-91
2023/07/08 13:15:17;;;;;;;4.43;2.83;;;27.50;7.30;;;;;;10444545;28;20640;-92
2023/07/08 13:20:21;;;;;;;4.10;3.00;;;27.90;5.10;;;;;;10444806;28;20258;-90
2023/07/08 13:25:29;;;;;;;5.22;3.65;;;27.90;5.40;;;;;;10428442;28;20676;-91
2023/07/08 13:30:32;;;;;;;2.55;2.35;;;27.90;6.50;;;;;;10445161;28;20254;-91
2023/07/08 13:35:38;;;;;;;5.07;2.60;;;28.00;5.70;;;;;;10426158;28;20236;-91
2023/07/08 13:40:45;;;;;;;4.13;3.03;;;27.90;7.50;;;;;;10427863;28;20285;-92
2023/07/08 13:45:48;;;;;;;8.75;3.17;;;28.00;7.00;;;;;;10428574;28;20300;-91
2023/07/08 13:50:56;;;;;;;4.47;3.40;;;27.90;7.70;;;;;;10446658;28;20296;-91
2023/07/08 13:56:02;;;;;;;3.55;2.90;;;27.90;8.80;;;;;;10429684;28;20243;-89
2023/07/08 14:01:08;;;;;;;11.20;3.47;;;27.90;6.40;;;;;;10429190;28;20293;-89
2023/07/08 14:06:17;;;;;;;3.00;2.53;;;28.00;5.60;;;;;;10447192;28;20230;-88
2023/07/08 14:11:20;;;;;;;3.42;3.13;;;28.10;7.20;;;;;;10428448;28;20675;-88
2023/07/08 14:16:29;;;;;;;4.18;2.88;;;28.10;7.50;;;;;;10446642;28;20265;-89
2023/07/08 14:21:34;;;;;;;4.13;2.50;;;27.90;6.40;;;;;;10430670;28;20242;-87
2023/07/08 14:26:37;;;;;;;2.90;2.70;;;27.90;6.30;;;;;;10453840;28;20262;-88
2023/07/08 14:31:41;;;;;;;2.85;2.10;;;27.90;7.10;;;;;;10435952;28;20246;-88
2023/07/08 14:36:43;;;;;;;3.35;3.13;;;27.90;7.50;;;;;;10456219;28;20693;-87
2023/07/08 14:41:49;;;;;;;3.33;2.92;;;28.00;7.60;;;;;;10437608;28;20656;-88
2023/07/08 14:46:53;;;;;;;2.53;2.33;;;27.90;9.90;;;;;;10449147;28;20242;-90
2023/07/08 14:51:55;;;;;;;3.25;2.78;;;27.70;8.70;;;;;;10451392;28;20242;-90
2023/07/08 14:56:59;;;;;;;2.83;2.53;;;27.80;6.90;;;;;;10454170;28;20691;-90
2023/07/08 15:02:15;;;;;;;3.20;2.65;;;27.80;9.10;;;;;;10454010;28;20238;-90
2023/07/08 15:07:17;;;;;;;4.20;3.15;;;27.70;8.30;;;;;;10451334;28;20260;-89
2023/07/08 15:12:20;;;;;;;2.58;2.38;;;27.80;5.50;;;;;;10452353;28;20230;-89
2023/07/08 15:17:23;;;;;;;6.55;3.08;;;27.90;7.10;;;;;;10453935;28;20285;-90
2023/07/08 15:22:25;;;;;;;4.55;2.67;;;27.80;5.80;;;;;;10435354;28;20268;-90
2023/07/08 15:27:28;;;;;;;3.75;3.38;;;27.90;8.60;;;;;;10433906;28;20266;-89
2023/07/08 15:32:30;;;;;;;4.70;3.28;;;27.80;5.20;;;;;;10413796;28;20247;-90
2023/07/08 15:37:44;;;;;;;3.00;2.80;;;27.70;6.40;;;;;;10432921;28;20308;-90
2023/07/08 15:42:49;;;;;;;4.50;2.72;;;27.70;9.70;;;;;;10450539;28;20792;-90
2023/07/08 15:47:52;;;;;;;3.13;2.83;;;27.50;7.70;;;;;;10413058;28;20679;-91
2023/07/08 15:52:55;;;;;;;5.10;3.13;;;27.50;8.10;;;;;;10387770;28;20630;-90
2023/07/08 15:58:07;;;;;;;3.80;3.42;;;27.30;6.20;;;;;;10428843;28;20270;-90
2023/07/08 16:03:23;;;;;;;3.67;3.00;;;27.30;7.90;;;;;;10448527;28;20231;-89
2023/07/08 16:08:26;;;;;;;4.07;3.67;;;27.30;5.70;;;;;;10432432;28;20295;-90
2023/07/08 16:13:35;;;;;;;4.47;3.20;;;27.30;8.80;;;;;;10450536;28;20316;-90
2023/07/08 16:18:38;;;;;;;5.25;3.53;;;27.30;9.90;;;;;;10449713;28;20328;-90
2023/07/08 16:23:41;;;;;;;3.20;2.90;;;27.40;7.60;;;;;;10431113;28;20304;-90
2023/07/08 16:28:45;;;;;;;3.30;3.10;;;27.40;11.60;;;;;;10449577;28;20393;-90
2023/07/08 16:33:49;;;;;;;3.65;3.35;;;27.40;11.30;;;;;;10431401;28;21017;-90
2023/07/08 16:38:52;;;;;;;5.22;3.90;;;27.50;8.60;;;;;;10457286;28;20297;-90
2023/07/08 16:43:56;;;;;;;4.22;3.83;;;27.70;7.10;;;;;;10431265;28;20246;-90
2023/07/08 16:48:58;;;;;;;6.55;3.08;;;27.70;9.80;;;;;;10446491;28;20238;-90
2023/07/08 16:54:08;;;;;;;6.88;3.58;;;27.80;10.40;;;;;;10430363;28;20305;-90
2023/07/08 16:59:15;;;;;;;4.10;3.70;;;27.80;10.10;;;;;;10444370;28;20835;-89
2023/07/08 17:04:18;;;;;;;5.03;3.30;;;27.90;9.80;;;;;;10430311;28;20222;-90
2023/07/08 17:09:20;;;;;;;3.35;3.05;;;27.80;9.70;;;;;;10449442;28;20640;-90
2023/07/08 17:14:23;;;;;;;3.05;2.80;;;27.70;11.20;;;;;;10102748;28;10000151;-91
2023/07/08 17:19:26;;;;;;;5.15;3.55;;;27.70;11.80;;;;;;10451386;28;20281;-91
2023/07/08 17:24:30;;;;;;;6.18;3.80;;;27.60;11.80;;;;;;10446977;28;20279;-90
2023/07/08 17:29:34;;;;;;;4.82;3.75;;;27.60;12.30;;;;;;10416496;23;20641;-94
2023/07/08 18:39:01;;;;;;;4.35;3.95;;;24.60;23.30;;;;;;10430095;28;20230;-96
2023/07/08 18:44:07;;;;;;;5.60;3.03;;;24.20;19.30;;;;;;10309374;28;20253;-88
2023/07/08 18:49:09;;;;;;;4.10;3.30;;;24.00;19.00;;;;;;10297330;28;20241;-93
2023/07/08 18:54:16;;;;;;;5.70;4.32;;;23.90;24.20;;;;;;10325090;28;20240;-90
2023/07/08 18:59:19;;;;;;;9.82;4.20;;;23.50;25.10;;;;;;10324267;28;20693;-90
2023/07/08 19:04:25;;;;;;;4.82;3.60;;;23.40;24.70;;;;;;10321507;28;20230;-90
2023/07/08 19:09:28;;;;;;;7.80;5.53;;;23.20;28.30;;;;;;10322114;28;20721;-89
2023/07/08 19:14:30;;;;;;;6.53;4.03;;;23.20;29.20;;;;;;10307394;28;20241;-90
2023/07/08 19:19:33;;;;;;;3.67;3.33;;;22.90;30.10;;;;;;10291249;28;20324;-91
2023/07/08 19:24:35;;;;;;;3.53;3.22;;;22.80;32.70;;;;;;10285133;28;20245;-90
2023/07/08 19:29:40;;;;;;;5.05;4.55;;;22.60;34.30;;;;;;9995954;28;9999964;-91
2023/07/08 19:34:45;;;;;;;4.00;3.60;;;22.40;34.10;;;;;;10324096;28;20244;-91
2023/07/08 19:39:50;;;;;;;3.30;3.00;;;22.30;37.70;;;;;;10316580;28;20660;-93
2023/07/08 19:44:52;;;;;;;3.92;2.97;;;22.10;40.00;;;;;;10311764;28;20365;-92
2023/07/08 19:49:55;;;;;;;2.65;2.45;;;22.00;42.60;;;;;;10284888;28;20292;-92
2023/07/08 19:54:59;;;;;;;6.05;4.10;;;21.90;44.70;;;;;;10290165;28;20237;-92
2023/07/08 20:00:02;;;;;;;3.90;3.58;;;21.80;44.80;;;;;;10306228;28;20311;-92
2023/07/08 20:05:19;;;;;;;3.38;3.08;;;21.70;48.40;;;;;;10322042;28;20635;-93
2023/07/08 20:10:22;;;;;;;3.33;3.00;;;21.60;51.10;;;;;;10300653;28;20237;-92
2023/07/08 20:15:26;;;;;;;5.28;4.20;;;21.40;52.40;;;;;;10292519;28;20349;-92
2023/07/08 20:20:29;;;;;;;3.35;3.08;;;21.40;54.50;;;;;;10327686;28;20272;-92
2023/07/08 20:25:31;;;;;;;5.22;2.78;;;21.40;55.90;;;;;;10328830;28;20237;-92
2023/07/08 20:30:34;;;;;;;5.00;3.10;;;21.30;57.10;;;;;;10313838;28;20292;-92
2023/07/08 20:35:37;;;;;;;3.08;2.78;;;21.20;57.30;;;;;;10310074;28;20749;-92
2023/07/08 20:40:40;;;;;;;2.70;2.30;;;21.20;58.90;;;;;;10286217;28;20273;-92
2023/07/08 20:45:47;;;;;;;4.72;3.20;;;21.00;60.90;;;;;;10288597;28;20245;-90
2023/07/08 20:50:50;;;;;;;3.20;2.80;;;21.00;60.40;;;;;;10318097;28;20264;-90
2023/07/08 20:55:53;;;;;;;4.53;3.58;;;20.90;60.80;;;;;;10321833;28;20237;-90
2023/07/08 21:00:56;;;;;;;3.80;2.97;;;20.90;60.00;;;;;;10295117;28;20351;-90
2023/07/08 21:06:00;;;;;;;3.35;2.97;;;20.80;61.60;;;;;;10307791;28;20237;-91
2023/07/08 21:11:06;;;;;;;4.25;3.33;;;20.80;61.50;;;;;;10312939;28;20285;-90
2023/07/08 21:16:26;;;;;;;3.08;2.78;;;20.70;64.50;;;;;;10326365;28;20294;-90
2023/07/08 21:21:28;;;;;;;3.47;3.17;;;20.70;65.20;;;;;;10325324;28;20264;-90
2023/07/08 21:26:31;;;;;;;3.42;3.10;;;20.70;67.80;;;;;;10325778;28;20240;-91
2023/07/08 21:31:33;;;;;;;5.28;4.13;;;20.60;68.00;;;;;;10300246;28;20304;-90
2023/07/08 21:36:37;;;;;;;4.10;3.70;;;20.60;67.30;;;;;;10314598;28;20236;-90
2023/07/08 21:41:40;;;;;;;3.78;3.13;;;20.50;69.30;;;;;;10326437;28;20264;-90
2023/07/08 21:46:42;;;;;;;8.20;4.65;;;20.50;68.70;;;;;;10323306;28;20244;-90
2023/07/08 21:51:46;;;;;;;7.35;3.25;;;20.30;68.40;;;;;;10309033;28;20644;-90
2023/07/08 21:56:48;;;;;;;4.57;4.13;;;20.10;71.30;;;;;;10310597;28;20270;-90
2023/07/08 22:01:51;;;;;;;7.70;4.68;;;20.10;73.40;;;;;;10303453;28;20249;-92
2023/07/08 22:06:53;;;;;;;4.97;3.33;;;20.00;77.10;;;;;;10309576;28;20245;-90
2023/07/08 22:11:56;;;;;;;8.75;4.47;;;20.00;79.50;;;;;;10308645;28;20762;-89
2023/07/08 22:16:58;;;;;;;4.40;3.88;;;19.90;81.60;;;;;;10307240;28;20280;-90
2023/07/08 22:22:19;;;;;;;3.97;3.22;;;19.70;83.40;;;;;;10285879;28;20719;-90
2023/07/08 22:27:21;;;;;;;5.18;4.07;;;19.30;86.80;;;;;;10352329;28;20232;-90
2023/07/08 22:32:23;;;;;;;4.15;3.75;;;19.30;90.30;;;;;;10367209;28;20244;-90
2023/07/08 22:37:26;;;;;;;4.63;4.22;;;19.40;91.10;;;;;;10301930;28;20639;-89
2023/07/08 22:42:29;;;;;;;4.68;3.92;;;19.30;91.30;;;;;;10269834;28;20633;-89
2023/07/08 22:47:31;;;;;;;3.80;3.15;;;19.20;92.00;;;;;;10276724;28;20233;-89
2023/07/08 22:52:36;;;;;;;5.05;3.88;;;19.20;92.70;;;;;;10277065;28;20245;-89
2023/07/08 22:57:39;;;;;;;8.00;3.67;;;19.20;92.90;;;;;;10330686;28;20695;-89
2023/07/08 23:02:41;;;;;;;6.38;4.88;;;19.10;93.50;;;;;;10331714;28;20265;-89
2023/07/08 23:07:44;;;;;;;4.60;3.17;;;19.10;93.70;;;;;;10332268;28;20307;-89
2023/07/08 23:12:46;;;;;;;3.63;3.20;;;19.00;94.50;;;;;;10328283;28;20693;-89
2023/07/08 23:17:49;;;;;;;5.07;4.57;;;19.00;94.70;;;;;;10327162;28;20241;-89
2023/07/08 23:22:52;;;;;;;4.43;3.75;;;18.90;94.80;;;;;;10294701;28;20297;-89
2023/07/08 23:27:54;;;;;;;10.10;5.15;;;18.60;95.80;;;;;;10291629;28;20707;-89
2023/07/08 23:32:57;;;;;;;5.57;4.32;;;18.60;96.30;;;;;;10278492;28;20613;-89
2023/07/08 23:38:00;;;;;;;7.20;4.53;;;18.50;96.70;;;;;;10327012;28;20236;-89
2023/07/08 23:43:02;;;;;;;5.32;4.50;;;18.10;97.80;;;;;;10330893;28;20297;-89
2023/07/08 23:48:05;;;;;;;4.40;3.58;;;18.10;98.10;;;;;;10313151;28;20635;-89
2023/07/08 23:53:16;;;;;;;4.68;4.10;;;18.10;98.50;;;;;;10329387;28;20296;-89
2023/07/08 23:58:25;;;;;;;4.80;4.10;;;18.10;98.70;;;;;;10330171;28;20691;-89
